Whiting Field Naval Air Station South Airport Milton US
ICAO: KNDZ
IATA: NDZ
Category: Medium
Scheduled Services: No

Elevation: 177 ft
TransAlt. 18000 ft.

Airport Communications:
PENSACOLA APP/DEP:124.85
ATIS:27.357
CLNC DEL:35.56
GND:34.68
BASE OPS:23.37
PMSV METRO:31.695
TWR:121.4

KNDZ Zoom In..

If you have problems with the map follow the link
https://www.worldairports.se/pages/airport.php?
ICAO=KNDZ

Runways:

(A) RW 05 length 5997 ft width 200 ft
---- / hdg 49

(B) RW 14 length 6001 ft width 200 ft
---- / hdg 139

(C) RW 23 length 5997 ft width 200 ft
---- / hdg 229

(D) RW 32 length 6001 ft width 200 ft
ILS 110.55 / hdg 319

Location; KNDZ
Day. 18 / Time. 02.56 Zulu
* Altimeter: 30.35
* Temperature: 18° c. 64.4°f.
* Wind from: 110° Speed 10 kn.
Dewpoint: 03° c.
Visibility: 10 Statute Miles.
Clouds: Broken 4300 ft.
Clouds: Overcast 8500 ft.

KNDZ 180256Z 11010KT 10SM BKN043 OVC085 18/03 A3035 RMK AO2 SLP266 T01830028 50007 $


Wind From 110°
Speed 10 kn.

 
 
jpsmedia worldairports.se 2020   terms of use